Aérodrome :
LOGIN :

S'inscrire | Disclaimer

   EN    FR    IT 

 










Légende :    VFR   VFR Marginal   IFR   IFR Intensif   IFR Très Intensif
Visi : 
Plafond : 
>= 8 km
>= 3000ft
5 à 8 km
1000 à 3000 ft
1500m à 5 km
500 à 1000 ft
800 à 1500m
200 à 500 ft
< 800m
< 200 ft
Symboles :   Orages  Brouillard  Fortes neiges  Fortes précipitations  Vent > 20 kt
SIGMETs :   Divers  Orages  Givrage  Turbulence  Onde Orograph.  Cendres Volcan.






- Altitude de l'aérodrome : 45 ft
- Code IATA : CEG


EGNR - Hawarden Chester

DERNIER METAR :
  • 171750Z 25008KT 9999 VCSH FEW013 SCT026 05/02 Q1009

METARs EXPIRÉS :
  • 171720Z 25007KT 220V290 9999 VCSH SCT013 07/02 Q1009
  • 171650Z 24006KT 9999 VCSH FEW023 SCT043 07/02 Q1008
  • 171620Z 24009KT 9999 VCSH FEW023CB SCT043 07/03 Q1008
  • 171550Z 27011KT 240V310 8000 -SHRA FEW023 BKN043 07/04 Q1007 RESHRA
  • 171520Z 22013KT 9999 VCSH FEW023 SCT043 06/04 Q1007 RESHRA

TAF TAF EGNR
Valide du 17 à 18h jusqu'au 17 à 21h UTC


171656Z 1718/1721 25012KT 9999 SCT030
PROB30
TEMPO 1718/1721 26018G30KT 7000 SHRA



MET'MAP, la Météo Aéronautique d'un coup d'oeil ! - Copyright ORBIFLY Décembre 2007 - Disclaimer

ORBIFLY MET'MAP TEAM :

Programmation & Développement : Alexandra Zaïnal
Sur une idée originale de : Baudouin d'Aumeries
Assistance à la programmation : Marc-Olivier Méhu
Soutien technique & logistique : Manuel Goepfert

Contact : metmap@orbifly.com




SOURCES & CREDITS :

   NOAA